Aviation Digital Data Service (ADDS)

Output produced by METARs form (1309 UTC 19 February 2020)
found at http://aviationweather.gov/metar/data/
 
METAR text: EYKA 191250Z 19008KT 150V250 9999 FEW022 06/01 Q1009 R08/290095
Conditions at: EYKA (KAUNAS , LT) observed 1250 UTC 19 February 2020
Temperature: 6.0°C (43°F)
Dewpoint: 1.0°C (34°F) [RH = 70%]
Pressure (altimeter): 29.79 inches Hg (1009.0 mb)
Winds: from the S (190 degrees) at 9 MPH (8 knots; 4.1 m/s)
Visibility: 6 or more miles (10+ km)
Ceiling: at least 12,000 feet AGL
Clouds: few clouds at 2200 feet AGL
Weather: no significant weather observed at this time

METAR text: EYKA 191220Z 20008KT 150V250 CAVOK 06/00 Q1009 R08/290095
Conditions at: EYKA (KAUNAS , LT) observed 1220 UTC 19 February 2020
Temperature: 6.0°C (43°F)
Dewpoint: 0.0°C (32°F) [RH = 65%]
Pressure (altimeter): 29.79 inches Hg (1009.0 mb)
Winds: from the SSW (200 degrees) at 9 MPH (8 knots; 4.1 m/s)
Visibility: 6 or more miles (10+ km)
Ceiling: ceiling and visibility are OK
Clouds: unknown
Weather: no significant weather observed at this time

METAR text: EYKA 191150Z 21010KT 160V250 9999 SCT020 BKN024CB OVC055 05/00 Q1009 R08/290095
Conditions at: EYKA (KAUNAS , LT) observed 1150 UTC 19 February 2020
Temperature: 5.0°C (41°F)
Dewpoint: 0.0°C (32°F) [RH = 70%]
Pressure (altimeter): 29.79 inches Hg (1009.0 mb)
Winds: from the SSW (210 degrees) at 12 MPH (10 knots; 5.1 m/s)
Visibility: 6 or more miles (10+ km)
Ceiling: 2400 feet AGL
Clouds: scattered clouds at 2000 feet AGL
broken clouds at 2400 feet AGL
overcast cloud deck at 5500 feet AGL
Weather: no significant weather observed at this time

METAR text: EYKA 191120Z 22009KT 200V260 9999 SCT022 BKN037CB OVC057 06/00 Q1010 R08/290095
Conditions at: EYKA (KAUNAS , LT) observed 1120 UTC 19 February 2020
Temperature: 6.0°C (43°F)
Dewpoint: 0.0°C (32°F) [RH = 65%]
Pressure (altimeter): 29.82 inches Hg (1010.0 mb)
Winds: from the SW (220 degrees) at 10 MPH (9 knots; 4.6 m/s)
Visibility: 6 or more miles (10+ km)
Ceiling: 3700 feet AGL
Clouds: scattered clouds at 2200 feet AGL
broken clouds at 3700 feet AGL
overcast cloud deck at 5700 feet AGL
Weather: no significant weather observed at this time

Forecast for: EYKA (KAUNAS , LT)
Text: TAF EYKA 191101Z 1912/2012 21010KT 9000 BKN025
Forecast period: 1200 UTC 19 February 2020 to 0000 UTC 20 February 2020
Forecast type: FROM: standard forecast or significant change
Winds: from the SSW (210 degrees) at 12 MPH (10 knots; 5.1 m/s)
Visibility: 6 miles (9 km)
Ceiling: 2500 feet AGL
Clouds: broken clouds at 2500 feet AGL
Weather: no significant weather forecast for this period
Text: PROB40
Forecast period: 1200 to 2100 UTC 19 February 2020
Forecast type: TEMPORARY: The following changes expected for less than half the time period
Visibility: missing
Ceiling: 1500 feet AGL
Clouds: broken clouds at 1500 feet AGL
Weather: SHRA  (rain showers)
Text: TEMPO 1912/1921 SHRA BKN015CB
Forecast period: 2100 UTC 19 February 2020 to 0000 UTC 20 February 2020
Forecast type: TEMPORARY: The following changes expected for less than half the time period
Visibility: 1.86 miles (2.99 km)
Ceiling: 500 feet AGL
Clouds: broken clouds at 500 feet AGL
broken clouds at 1500 feet AGL
Weather: SHRA  (rain showers)
Text: TEMPO 1921/1924 3000 SHRA BKN005 BKN015CB
Forecast period: 0000 to 0700 UTC 20 February 2020
Forecast type: BECOMING: Conditions expected to become as follows by 0100 UTC 20 February 2020
Winds: from the W (270 degrees) at 9 MPH (8 knots; 4.1 m/s)
Visibility: 6 miles (9 km)
Ceiling: 1000 feet AGL
Clouds: overcast cloud deck at 1000 feet AGL
Weather: no significant weather forecast for this period
Text: BECMG 2000/2001 27008KT OVC010
Forecast period: 0100 to 0700 UTC 20 February 2020
Forecast type: TEMPORARY: The following changes expected for less than half the time period
Visibility: 1.86 miles (2.99 km)
Ceiling: 500 feet AGL
Clouds: broken clouds at 500 feet AGL
Weather: RA BR  (moderate rain, mist)
Text: TEMPO 2001/2007 3000 RA BR BKN005
Forecast period: 0700 to 1200 UTC 20 February 2020
Forecast type: BECOMING: Conditions expected to become as follows by 0900 UTC 20 February 2020
Winds: from the W (270 degrees) at 9 MPH (8 knots; 4.1 m/s)
Visibility: 6 miles (9 km)
Ceiling: 2000 feet AGL
Clouds: broken clouds at 2000 feet AGL
Weather: no significant weather forecast for this period